Time;durP1;ratioP1;P1;durP2;ratioP2;P2;SDS_P1;SDS_P2;PMS_P1;PMS_P2;Temp;Humidity;BMP_temperature;BMP_pressure;BME280_temperature;BME280_humidity;BME280_pressure;Samples;Min_cycle;Max_cycle;Signal;HPM_P1;HPM_P2
2022/05/16 00:08:17;;;;;;;5.70;0.40;;;;;;;10.71;44.13;101872.91;4975477;28;20054;-76
2022/05/16 00:10:47;;;;;;;2.13;0.43;;;;;;;10.97;43.58;101867.94;4948160;28;20035;-78
2022/05/16 00:13:14;;;;;;;2.45;0.50;;;;;;;10.93;43.53;101863.66;5003983;28;20803;-79
2022/05/16 00:16:01;;;;;;;3.13;0.40;;;;;;;10.93;43.40;101862.78;4982523;28;20050;-79
2022/05/16 00:18:27;;;;;;;1.13;0.70;;;;;;;10.81;43.53;101858.69;4979533;28;20053;-78
2022/05/16 00:36:03;;;;;;;0.65;0.55;;;;;;;10.63;43.28;101832.13;5003347;28;20110;-79
2022/05/16 00:38:31;;;;;;;2.03;0.50;;;;;;;10.76;43.48;101829.19;4973503;28;20048;-79
2022/05/16 01:05:03;;;;;;;1.40;0.20;;;;;;;10.54;43.17;101821.88;4994796;28;20190;-79
2022/05/16 01:08:19;;;;;;;3.78;0.40;;;;;;;10.42;43.15;101811.75;4978928;28;20113;-78
2022/05/16 01:10:50;;;;;;;1.95;0.40;;;;;;;10.60;42.75;101806.06;4980980;28;20038;-81
2022/05/16 01:24:46;;;;;;;1.85;0.22;;;;;;;10.07;44.18;101796.91;5001860;28;20060;-80
2022/05/16 01:36:16;;;;;;;2.45;0.32;;;;;;;10.07;43.48;101787.31;4938943;29;20593;-77
2022/05/16 01:38:42;;;;;;;2.80;0.40;;;;;;;10.09;43.81;101785.53;4899904;28;20069;-80
2022/05/16 01:41:57;;;;;;;2.30;0.38;;;;;;;10.09;43.71;101779.44;4962183;28;20703;-80
2022/05/16 01:44:26;;;;;;;2.75;0.43;;;;;;;9.91;43.76;101780.72;4962715;28;20049;-80
2022/05/16 02:32:56;;;;;;;2.08;0.25;;;;;;;9.74;44.06;101753.19;5002616;28;20092;-78
2022/05/16 02:35:22;;;;;;;1.15;0.30;;;;;;;9.75;44.16;101747.09;4979719;28;20037;-79
2022/05/16 02:37:48;;;;;;;2.70;0.20;;;;;;;9.93;43.69;101747.63;4978453;28;20034;-79
2022/05/16 02:40:16;;;;;;;4.45;0.20;;;;;;;9.77;44.11;101740.09;4982868;28;20033;-78
2022/05/16 02:43:36;;;;;;;2.75;0.30;;;;;;;9.87;43.85;101742.53;4923793;29;20703;-78
2022/05/16 02:46:02;;;;;;;3.08;0.13;;;;;;;9.91;43.80;101747.63;4901516;29;20027;-79
2022/05/16 03:07:46;;;;;;;1.35;0.22;;;;;;;9.63;44.23;101738.69;4955291;28;20090;-81
2022/05/16 03:10:15;;;;;;;1.98;0.43;;;;;;;9.47;44.55;101735.56;4934628;28;20064;-76
2022/05/16 03:16:52;;;;;;;0.63;0.17;;;;;;;9.45;44.80;101708.63;4915891;29;20215;-78
2022/05/16 03:19:18;;;;;;;2.58;0.20;;;;;;;9.58;44.12;101715.28;4922027;28;20047;-78
2022/05/16 03:30:25;;;;;;;1.90;0.40;;;;;;;9.61;44.28;101715.25;4994710;28;20045;-80
2022/05/16 03:32:53;;;;;;;2.13;0.30;;;;;;;9.65;44.30;101711.66;4960218;28;20129;-83
2022/05/16 03:43:56;;;;;;;4.28;0.63;;;;;;;9.50;44.46;101706.75;4951429;28;20627;-80
2022/05/16 03:46:33;;;;;;;2.53;0.22;;;;;;;9.33;44.87;101701.94;4936959;29;20051;-79
2022/05/16 03:49:01;;;;;;;2.33;0.32;;;;;;;9.45;44.54;101696.44;4928311;28;20069;-80
2022/05/16 03:55:49;;;;;;;3.53;0.30;;;;;;;9.34;44.96;101685.38;4953000;28;20126;-78
2022/05/16 03:58:21;;;;;;;2.15;0.40;;;;;;;9.32;45.06;101680.22;4921770;29;20311;-77
2022/05/16 04:08:56;;;;;;;3.55;0.30;;;;;;;9.57;44.55;101692.72;4938713;29;20055;-78
2022/05/16 04:45:25;;;;;;;2.45;0.47;;;;;;;10.30;43.61;101699.69;4935770;29;20149;-80
2022/05/16 04:51:27;;;;;;;8.07;0.65;;;;;;;10.16;44.09;101679.97;4908704;29;20054;-78
2022/05/16 04:53:53;;;;;;;2.42;0.40;;;;;;;10.25;44.04;101675.44;4920000;29;20081;-78
2022/05/16 04:56:20;;;;;;;1.67;0.40;;;;;;;10.25;43.85;101667.59;4920698;29;20410;-79
2022/05/16 05:02:33;;;;;;;2.83;0.30;;;;;;;11.29;41.61;101667.31;5004975;28;20068;-78
2022/05/16 05:05:12;;;;;;;2.05;0.68;;;;;;;12.12;39.85;101658.59;5021221;28;20034;-79
2022/05/16 05:15:21;;;;;;;4.10;0.55;;;;;;;13.81;36.19;101668.91;5017660;28;20050;-79
2022/05/16 05:18:29;;;;;;;2.60;0.30;;;;;;;12.02;40.10;101671.13;5001932;28;20089;-77
2022/05/16 05:22:20;;;;;;;2.22;0.47;;;;;;;13.35;38.09;101673.34;4998146;28;20046;-79
2022/05/16 05:25:09;;;;;;;1.40;0.52;;;;;;;13.78;36.83;101674.28;4990729;28;20046;-79
2022/05/16 05:27:40;;;;;;;1.67;0.52;;;;;;;12.85;38.44;101676.13;4998261;28;20104;-77
2022/05/16 05:30:13;;;;;;;;;;;;;;;12.78;38.69;101674.63;4999503;28;20049;-79
2022/05/16 05:33:43;;;;;;;3.10;0.50;;;;;;;15.11;34.07;101675.53;5005241;28;19924;-77
2022/05/16 05:36:10;;;;;;;5.50;0.47;;;;;;;16.09;32.58;101675.25;4997349;28;20053;-77
2022/05/16 05:38:40;;;;;;;5.47;0.40;;;;;;;16.32;32.02;101670.56;4977924;28;20096;-77
2022/05/16 05:41:10;;;;;;;2.45;0.43;;;;;;;17.08;30.54;101670.94;4997354;28;20018;-76
2022/05/16 05:43:39;;;;;;;1.35;0.55;;;;;;;17.26;30.25;101670.84;4924333;28;20054;-78
2022/05/16 05:46:05;;;;;;;1.63;0.30;;;;;;;17.41;29.93;101668.19;4899078;28;1663049;-78
2022/05/16 05:48:31;;;;;;;1.45;0.63;;;;;;;18.02;29.24;101666.47;4977121;28;20046;-78
2022/05/16 05:50:56;;;;;;;3.45;0.50;;;;;;;17.71;29.45;101661.28;4976241;28;20030;-80
2022/05/16 05:53:24;;;;;;;3.70;0.50;;;;;;;18.73;28.27;101651.63;4978295;28;20065;-78
2022/05/16 05:55:51;;;;;;;1.17;0.35;;;;;;;19.78;27.14;101652.91;4960691;28;20233;-78
2022/05/16 05:58:40;;;;;;;2.03;0.30;;;;;;;20.27;25.66;101644.28;4982955;28;20046;-79
2022/05/16 06:01:07;;;;;;;10.65;0.50;;;;;;;19.67;26.63;101649.16;4989499;28;20102;-77
2022/05/16 06:03:36;;;;;;;3.92;0.50;;;;;;;18.50;28.36;101641.59;4976270;28;20855;-78
2022/05/16 06:06:37;;;;;;;2.67;0.60;;;;;;;18.25;28.84;101643.97;4982920;28;20058;-77
2022/05/16 06:09:03;;;;;;;6.93;2.58;;;;;;;16.98;30.43;101644.19;4989954;28;20049;-80
2022/05/16 06:11:28;;;;;;;2.28;0.60;;;;;;;16.30;32.43;101652.19;4997218;28;20035;-78
2022/05/16 06:13:58;;;;;;;3.95;1.25;;;;;;;15.98;32.50;101659.09;4990360;28;20120;-76
2022/05/16 06:16:31;;;;;;;6.63;1.92;;;;;;;15.72;33.08;101657.75;4994379;28;20476;-74
2022/05/16 06:18:57;;;;;;;7.85;1.92;;;;;;;15.09;33.91;101656.31;4960177;28;20038;-77
2022/05/16 06:21:23;;;;;;;3.40;0.60;;;;;;;16.18;32.88;101663.38;5012293;28;20032;-81
2022/05/16 06:23:52;;;;;;;7.72;1.75;;;;;;;17.39;30.20;101656.84;5014473;28;20097;-78
2022/05/16 06:26:38;;;;;;;2.25;0.85;;;;;;;17.32;30.12;101647.56;4958266;28;20070;-77
2022/05/16 06:29:04;;;;;;;4.97;0.60;;;;;;;17.20;30.50;101653.53;4975975;28;20038;-76
2022/05/16 06:31:30;;;;;;;4.88;0.60;;;;;;;16.36;31.89;101662.41;4975500;28;20121;-80
2022/05/16 06:33:55;;;;;;;5.90;1.40;;;;;;;16.47;31.94;101666.28;4988029;28;20048;-78
2022/05/16 06:36:21;;;;;;;5.00;1.25;;;;;;;17.59;30.54;101655.75;4978622;28;20026;-79
2022/05/16 06:38:52;;;;;;;5.55;0.60;;;;;;;19.80;26.86;101646.53;4977671;28;20142;-78
2022/05/16 06:41:27;;;;;;;3.92;0.65;;;;;;;19.98;26.14;101644.44;4977574;28;20030;-78
2022/05/16 06:43:52;;;;;;;5.28;1.90;;;;;;;19.55;26.49;101647.31;4970520;28;20046;-78
2022/05/16 06:46:18;;;;;;;6.53;1.88;;;;;;;18.36;28.42;101650.38;4976896;28;20041;-76
2022/05/16 06:48:46;;;;;;;3.10;0.80;;;;;;;18.94;28.15;101651.25;4955574;28;20141;-78
2022/05/16 06:51:12;;;;;;;4.60;0.75;;;;;;;20.84;25.41;101641.16;4978718;28;20034;-77
2022/05/16 06:53:48;;;;;;;3.85;1.08;;;;;;;21.13;24.59;101646.16;4976559;28;20065;-78
2022/05/16 06:56:13;;;;;;;5.25;0.90;;;;;;;21.56;24.43;101648.34;5018000;28;20104;-78
2022/05/16 06:58:39;;;;;;;5.70;1.08;;;;;;;22.33;23.88;101637.16;5008714;28;20034;-79
2022/05/16 07:01:05;;;;;;;3.17;0.90;;;;;;;23.18;22.34;101640.09;4976184;28;20026;-77
2022/05/16 07:03:32;;;;;;;4.88;0.50;;;;;;;23.13;22.85;101639.66;4977106;28;20058;-80
2022/05/16 07:05:58;;;;;;;2.03;0.63;;;;;;;19.86;26.31;101635.50;4990267;28;20035;-77
2022/05/16 07:08:24;;;;;;;2.35;0.52;;;;;;;18.14;29.24;101641.09;4961246;28;20424;-78
2022/05/16 07:10:50;;;;;;;3.38;0.55;;;;;;;20.38;26.48;101636.41;4995891;28;20059;-78
2022/05/16 07:13:16;;;;;;;2.38;0.57;;;;;;;20.84;25.52;101625.22;4964108;28;20042;-77
2022/05/16 07:15:42;;;;;;;2.78;0.77;;;;;;;22.12;24.57;101619.25;4966838;28;20033;-78
2022/05/16 07:18:08;;;;;;;5.15;0.98;;;;;;;22.91;23.19;101619.22;4967333;28;20035;-78
2022/05/16 07:20:35;;;;;;;4.07;0.93;;;;;;;22.14;24.09;101611.16;4966749;28;20117;-80
2022/05/16 07:23:01;;;;;;;2.63;0.93;;;;;;;20.42;26.42;101624.63;4978304;28;20050;-78
2022/05/16 07:25:28;;;;;;;2.95;0.77;;;;;;;20.31;26.54;101619.22;4968326;28;20072;-76
2022/05/16 07:27:58;;;;;;;4.30;1.05;;;;;;;19.81;27.76;101616.38;4964133;28;20050;-77
2022/05/16 07:30:32;;;;;;;4.20;0.50;;;;;;;20.42;26.79;101614.00;4968456;28;20121;-76
2022/05/16 07:32:59;;;;;;;2.83;0.68;;;;;;;19.77;27.27;101609.63;4982691;28;20052;-78
2022/05/16 07:35:29;;;;;;;4.70;0.75;;;;;;;18.51;29.02;101611.56;4964159;28;20532;-80
2022/05/16 07:37:55;;;;;;;5.32;0.73;;;;;;;18.43;30.29;101620.81;4962567;28;20441;-81
2022/05/16 07:40:27;;;;;;;2.63;0.60;;;;;;;18.52;29.72;101613.25;4965008;28;20132;-80
2022/05/16 07:42:54;;;;;;;2.65;0.43;;;;;;;17.63;31.52;101614.16;4960583;28;20104;-80
2022/05/16 07:45:21;;;;;;;3.53;0.85;;;;;;;17.71;31.60;101609.25;4981975;28;20038;-80
2022/05/16 07:48:20;;;;;;;8.10;0.60;;;;;;;17.61;31.95;101611.59;4972851;28;20054;-80
2022/05/16 07:51:06;;;;;;;4.75;0.63;;;;;;;18.01;30.91;101611.88;4965287;28;20038;-81
2022/05/16 07:53:32;;;;;;;5.35;2.58;;;;;;;19.00;29.42;101613.78;4980453;28;20069;-77
2022/05/16 07:55:58;;;;;;;5.43;1.00;;;;;;;20.00;27.68;101605.38;4968009;28;20070;-80
2022/05/16 07:58:27;;;;;;;7.30;3.20;;;;;;;21.40;26.42;101599.88;4945840;28;20535;-82
2022/05/16 08:01:18;;;;;;;3.38;0.70;;;;;;;22.97;24.12;101588.56;4989376;28;20069;-84
2022/05/16 08:03:44;;;;;;;4.07;0.73;;;;;;;22.64;23.59;101586.78;4973290;28;20042;-81
2022/05/16 08:06:13;;;;;;;8.05;1.23;;;;;;;23.08;23.77;101590.34;4985070;28;20568;-76
2022/05/16 08:11:24;;;;;;;5.93;0.70;;;;;;;24.30;21.94;101600.47;4979389;28;20030;-78
2022/05/16 08:13:53;;;;;;;7.55;1.15;;;;;;;24.25;21.93;101597.38;4943604;28;20209;-78
2022/05/16 08:16:19;;;;;;;3.00;0.95;;;;;;;23.76;21.76;101593.56;4963926;28;20061;-76
2022/05/16 08:18:44;;;;;;;2.08;0.60;;;;;;;24.00;22.13;101593.31;5001175;28;20121;-80
2022/05/16 08:21:10;;;;;;;5.65;1.00;;;;;;;24.61;21.20;101587.94;4998316;28;20038;-78
2022/05/16 08:23:37;;;;;;;1.80;1.10;;;;;;;24.82;21.04;101589.69;4984680;28;20038;-77
2022/05/16 08:26:04;;;;;;;6.95;1.45;;;;;;;24.54;20.84;101584.13;4988823;28;20030;-78
2022/05/16 08:28:33;;;;;;;2.10;0.63;;;;;;;25.14;20.36;101591.31;4967714;28;20042;-79
2022/05/16 08:30:59;;;;;;;2.65;0.55;;;;;;;24.37;21.05;101592.75;4969403;28;20034;-77
2022/05/16 08:33:24;;;;;;;3.75;0.90;;;;;;;24.09;21.60;101589.84;4965441;28;20073;-77
2022/05/16 08:41:27;;;;;;;3.83;0.63;;;;;;;24.37;21.81;101592.75;5012363;28;20267;-78
2022/05/16 08:44:07;;;;;;;7.25;0.50;;;;;;;24.11;21.36;101590.56;4985476;28;20192;-76
2022/05/16 08:46:44;;;;;;;5.30;0.80;;;;;;;23.81;21.77;101586.88;5018544;28;20037;-75
2022/05/16 08:49:40;;;;;;;3.60;0.73;;;;;;;24.36;22.11;101591.09;4984806;28;20351;-79
2022/05/16 08:52:27;;;;;;;3.05;0.60;;;;;;;24.72;21.53;101578.13;4968760;28;20132;-77
2022/05/16 08:55:05;;;;;;;2.25;0.63;;;;;;;25.56;21.01;101574.97;4971788;28;20046;-78
2022/05/16 08:57:36;;;;;;;3.15;0.25;;;;;;;25.50;20.06;101570.16;4969634;28;20101;-78
2022/05/16 09:00:21;;;;;;;6.80;0.70;;;;;;;25.24;20.38;101560.03;4982854;28;20034;-80
2022/05/16 09:02:52;;;;;;;3.65;0.55;;;;;;;24.16;21.60;101564.28;4986107;28;20055;-78
2022/05/16 09:05:23;;;;;;;5.55;0.95;;;;;;;24.51;21.30;101552.34;4963405;28;20040;-78
2022/05/16 09:07:52;;;;;;;4.60;1.15;;;;;;;24.16;21.65;101553.59;4965200;28;20046;-78
2022/05/16 09:10:23;;;;;;;4.63;0.88;;;;;;;24.80;21.17;101556.91;4985264;28;20038;-78
2022/05/16 09:13:21;;;;;;;2.97;0.93;;;;;;;23.89;22.07;101545.34;4963677;28;20468;-77
2022/05/16 09:16:09;;;;;;;2.38;0.85;;;;;;;23.37;21.94;101546.13;4938159;28;20081;-77
2022/05/16 09:18:55;;;;;;;3.40;0.90;;;;;;;22.77;22.71;101547.56;4958583;28;20126;-78
2022/05/16 09:21:48;;;;;;;3.33;0.50;;;;;;;23.37;22.81;101545.28;4976151;28;20046;-79
2022/05/16 09:24:28;;;;;;;9.15;0.50;;;;;;;22.57;23.16;101547.31;4978461;28;20049;-79
2022/05/16 09:28:34;;;;;;;3.58;1.17;;;;;;;22.18;24.02;101557.53;4980585;28;20416;-78
2022/05/16 09:30:05;;;;;;;4.85;0.57;;;;;;;22.94;23.88;101556.81;4987026;28;20038;-75
2022/05/16 09:32:35;;;;;;;1.85;0.50;;;;;;;22.21;23.78;101560.94;4963645;28;20039;-79
2022/05/16 09:35:01;;;;;;;2.85;0.52;;;;;;;22.12;23.78;101557.19;4961141;28;20110;-82
2022/05/16 09:37:26;;;;;;;4.45;0.80;;;;;;;22.26;23.92;101553.41;4964417;28;20030;-76
2022/05/16 09:39:53;;;;;;;5.65;0.60;;;;;;;22.29;23.65;101538.06;4995668;28;20061;-79
2022/05/16 09:42:26;;;;;;;4.32;0.93;;;;;;;22.90;23.24;101547.41;4984297;28;20169;-78
2022/05/16 09:45:03;;;;;;;4.43;1.55;;;;;;;21.96;23.90;101562.81;4962448;28;20037;-78
2022/05/16 09:47:29;;;;;;;1.88;0.38;;;;;;;22.14;23.88;101558.75;4982885;28;20090;-79
2022/05/16 09:50:06;;;;;;;7.55;0.82;;;;;;;22.67;23.87;101546.56;4984286;28;20735;-80
2022/05/16 09:52:37;;;;;;;2.10;0.50;;;;;;;22.29;23.76;101547.84;4961072;28;20113;-78
2022/05/16 09:55:11;;;;;;;1.58;0.40;;;;;;;22.51;24.35;101558.47;4969496;28;20609;-81
2022/05/16 09:57:48;;;;;;;3.15;0.43;;;;;;;22.22;24.28;101552.81;4966708;28;20046;-79
2022/05/16 10:00:23;;;;;;;2.85;0.75;;;;;;;22.86;23.75;101549.47;4965024;28;20041;-79
2022/05/16 10:03:00;;;;;;;4.72;1.02;;;;;;;22.81;23.55;101549.00;4964858;28;20069;-77
2022/05/16 10:05:31;;;;;;;2.40;0.40;;;;;;;22.76;23.70;101545.84;4965140;28;20046;-77
2022/05/16 10:08:11;;;;;;;4.57;0.87;;;;;;;23.12;23.80;101551.78;4961217;28;20088;-79
2022/05/16 10:10:42;;;;;;;2.80;0.90;;;;;;;22.74;22.85;101558.44;4967293;28;20078;-80
2022/05/16 10:13:07;;;;;;;5.65;0.50;;;;;;;22.47;23.19;101550.84;4979899;28;20049;-80
2022/05/16 10:15:36;;;;;;;5.68;0.82;;;;;;;22.51;23.75;101555.78;4963473;28;20033;-78
2022/05/16 10:18:07;;;;;;;3.80;0.77;;;;;;;22.91;22.86;101549.94;4952953;28;20046;-78
2022/05/16 10:20:39;;;;;;;4.07;0.85;;;;;;;22.66;22.91;101560.88;4973802;28;20030;-79
2022/05/16 10:23:16;;;;;;;;;;;;;;;22.30;24.03;101565.53;4968563;28;20129;-77
2022/05/16 10:25:48;;;;;;;7.28;0.45;;;;;;;22.67;23.60;101567.88;4971206;28;19968;-77
2022/05/16 10:28:27;;;;;;;2.55;0.55;;;;;;;23.25;22.69;101556.94;4953778;28;20046;-78
2022/05/16 10:33:41;;;;;;;5.10;0.77;;;;;;;23.94;22.24;101553.78;4972313;28;20931;-78
2022/05/16 10:36:22;;;;;;;3.88;0.65;;;;;;;23.53;21.98;101560.84;4950923;28;20114;-78
2022/05/16 10:39:01;;;;;;;5.82;1.15;;;;;;;23.30;22.74;101555.63;4973287;28;20236;-79
2022/05/16 10:41:35;;;;;;;1.70;0.40;;;;;;;23.37;22.64;101556.78;4985919;28;20038;-78
2022/05/16 10:44:13;;;;;;;4.07;0.73;;;;;;;23.20;22.76;101554.66;4971315;28;20038;-78
2022/05/16 10:46:42;;;;;;;5.53;1.08;;;;;;;22.90;23.64;101553.56;4984077;28;20034;-79
2022/05/16 10:49:21;;;;;;;4.40;0.52;;;;;;;23.55;23.10;101549.06;4968844;28;20133;-78
2022/05/16 10:52:22;;;;;;;5.50;0.90;;;;;;;24.12;22.26;101546.84;4959960;28;20177;-78
2022/05/16 10:54:48;;;;;;;3.60;0.68;;;;;;;24.20;22.34;101551.53;4956886;28;20968;-78
2022/05/16 10:57:31;;;;;;;6.72;0.93;;;;;;;24.44;21.37;101538.69;4954996;28;20029;-78
2022/05/16 11:00:19;;;;;;;2.90;0.70;;;;;;;24.54;21.49;101536.03;4952864;28;21198;-78
2022/05/16 11:03:06;;;;;;;2.85;0.73;;;;;;;25.07;22.01;101531.34;4953015;28;20520;-79
2022/05/16 11:06:03;;;;;;;4.68;0.60;;;;;;;24.53;20.99;101529.03;4959212;28;20042;-78
2022/05/16 11:08:46;;;;;;;6.45;0.95;;;;;;;24.84;20.93;101520.91;4956794;28;20046;-77
2022/05/16 11:11:36;;;;;;;4.32;0.90;;;;;;;25.43;20.75;101519.06;4956512;28;20039;-79
2022/05/16 11:14:20;;;;;;;5.00;1.27;;;;;;;25.19;20.30;101514.16;4951674;28;20042;-77
2022/05/16 11:16:50;;;;;;;4.28;0.75;;;;;;;25.28;20.46;101515.97;4963935;28;20038;-80
2022/05/16 11:19:36;;;;;;;1.73;0.40;;;;;;;25.76;21.18;101517.72;4981162;28;20114;-78
2022/05/16 11:22:02;;;;;;;3.30;0.82;;;;;;;25.86;19.64;101521.19;4965432;28;20042;-79
2022/05/16 11:25:05;;;;;;;3.88;1.10;;;;;;;25.61;20.14;101514.66;4973372;28;20403;-77
2022/05/16 11:28:25;;;;;;;3.83;0.85;;;;;;;25.28;20.48;101507.94;4967178;28;20038;-77
2022/05/16 11:30:59;;;;;;;2.40;0.63;;;;;;;25.72;20.57;101505.63;4926653;28;20669;-78
2022/05/16 11:33:39;;;;;;;2.17;0.65;;;;;;;25.68;20.25;101510.41;4961631;28;20050;-77
2022/05/16 11:36:23;;;;;;;3.58;1.00;;;;;;;24.80;21.22;101508.81;4966915;28;20638;-79
2022/05/16 11:39:12;;;;;;;1.73;0.75;;;;;;;25.40;21.05;101511.31;4985317;28;20030;-79
2022/05/16 11:42:07;;;;;;;7.75;1.58;;;;;;;25.15;20.68;101507.41;4967934;28;20034;-79
2022/05/16 11:45:12;;;;;;;3.55;0.70;;;;;;;25.29;21.25;101501.63;4968636;28;20141;-80
2022/05/16 11:48:00;;;;;;;1.85;0.70;;;;;;;25.35;20.98;101498.38;4972421;28;20115;-77
2022/05/16 11:50:52;;;;;;;3.40;0.98;;;;;;;25.57;21.13;101507.06;4967690;28;20033;-76
2022/05/16 11:53:49;;;;;;;2.33;0.50;;;;;;;25.20;20.56;101495.28;4966804;28;20100;-76
2022/05/16 12:02:27;;;;;;;1.60;0.57;;;;;;;25.60;20.09;101502.28;4983185;28;20038;-78
2022/05/16 12:05:34;;;;;;;3.00;0.80;;;;;;;25.20;20.91;101492.63;4966076;28;20062;-80
2022/05/16 12:08:04;;;;;;;3.28;0.60;;;;;;;25.33;21.20;101500.34;4962612;28;20141;-80
2022/05/16 12:10:32;;;;;;;2.25;0.60;;;;;;;25.24;21.23;101495.84;4966194;28;20027;-78
2022/05/16 12:13:23;;;;;;;7.50;1.08;;;;;;;25.77;20.85;101497.97;4966126;28;20814;-77
2022/05/16 12:16:14;;;;;;;7.13;1.10;;;;;;;26.25;19.93;101496.09;4987535;28;20104;-80
2022/05/16 12:19:17;;;;;;;2.72;0.80;;;;;;;26.83;19.70;101489.53;4983009;28;20145;-81
2022/05/16 12:21:59;;;;;;;3.38;0.60;;;;;;;27.43;18.74;101496.84;4984640;28;20040;-77
2022/05/16 12:24:30;;;;;;;4.75;0.73;;;;;;;28.11;18.30;101485.31;4985235;28;20124;-78
2022/05/16 12:27:44;;;;;;;4.07;0.93;;;;;;;27.41;18.66;101488.97;4999161;28;20074;-81
2022/05/16 12:30:28;;;;;;;4.63;1.13;;;;;;;27.52;18.53;101482.50;4961894;28;20049;-79
2022/05/16 12:32:56;;;;;;;6.57;1.30;;;;;;;26.46;19.08;101490.47;4962681;28;20053;-80
2022/05/16 12:35:27;;;;;;;2.97;0.90;;;;;;;26.42;19.68;101486.38;4963865;28;20030;-77
2022/05/16 12:37:55;;;;;;;4.30;0.90;;;;;;;26.40;20.05;101485.69;4995467;28;20131;-80
2022/05/16 12:40:56;;;;;;;8.57;0.93;;;;;;;26.56;19.12;101474.28;4980028;28;20045;-77
2022/05/16 12:43:28;;;;;;;1.77;0.63;;;;;;;26.45;19.49;101475.38;4964267;28;20125;-77
2022/05/16 12:46:22;;;;;;;3.40;1.25;;;;;;;27.04;19.03;101465.88;4963931;28;20193;-78
2022/05/16 12:49:05;;;;;;;4.53;1.40;;;;;;;27.02;18.66;101480.44;4967292;28;20046;-77
2022/05/16 12:51:37;;;;;;;4.25;1.20;;;;;;;27.19;18.68;101481.44;4968175;28;20035;-78
2022/05/16 12:54:03;;;;;;;6.13;0.80;;;;;;;27.51;18.85;101468.22;4996783;28;20129;-79
2022/05/16 12:56:49;;;;;;;7.53;0.75;;;;;;;27.81;18.65;101468.75;4984393;28;20468;-80
2022/05/16 12:59:47;;;;;;;5.13;0.68;;;;;;;27.75;18.46;101458.66;4987251;28;20063;-79
2022/05/16 13:02:26;;;;;;;5.55;1.02;;;;;;;27.40;18.88;101467.66;4966665;28;20556;-79
2022/05/16 13:05:20;;;;;;;4.30;1.27;;;;;;;27.81;18.54;101457.13;4968100;28;20038;-80
2022/05/16 13:08:15;;;;;;;5.43;1.33;;;;;;;27.70;18.55;101458.28;4983521;28;20131;-79
2022/05/16 13:10:53;;;;;;;4.72;1.08;;;;;;;27.28;17.90;101464.41;4980236;28;20049;-78
2022/05/16 13:13:34;;;;;;;3.63;0.85;;;;;;;27.39;18.83;101461.44;4967901;28;20098;-82
2022/05/16 13:16:29;;;;;;;1.92;0.93;;;;;;;27.55;18.03;101452.66;4982108;28;20423;-78
2022/05/16 13:19:07;;;;;;;3.88;1.00;;;;;;;27.35;18.75;101451.19;4981359;28;20485;-78
2022/05/16 13:21:51;;;;;;;3.60;0.90;;;;;;;27.39;18.43;101441.81;4972904;28;20032;-78
2022/05/16 13:24:20;;;;;;;3.50;0.60;;;;;;;27.64;18.59;101446.34;4983064;28;20354;-79
2022/05/16 13:29:34;;;;;;;3.15;0.73;;;;;;;27.08;19.49;101440.41;4981115;28;20041;-79
2022/05/16 13:32:12;;;;;;;3.63;0.77;;;;;;;27.34;19.20;101436.94;4965167;28;20473;-82
2022/05/16 13:34:45;;;;;;;5.85;0.85;;;;;;;27.34;18.38;101439.63;4998650;28;20038;-78
2022/05/16 13:37:16;;;;;;;4.72;0.88;;;;;;;27.52;18.48;101426.97;4965630;28;20112;-82
2022/05/16 13:39:45;;;;;;;2.83;0.60;;;;;;;27.37;17.87;101431.25;4967960;28;20397;-79
2022/05/16 13:42:11;;;;;;;2.78;0.85;;;;;;;27.95;17.58;101421.63;4982864;28;20052;-80
2022/05/16 13:44:41;;;;;;;6.88;0.68;;;;;;;27.44;18.33;101423.41;4969570;28;20117;-80
2022/05/16 13:47:10;;;;;;;3.30;0.90;;;;;;;27.58;18.88;101430.00;4982050;28;20030;-80
2022/05/16 13:49:36;;;;;;;6.97;1.92;;;;;;;26.95;19.37;101434.63;4980484;28;20050;-78
2022/05/16 13:52:03;;;;;;;6.43;0.95;;;;;;;26.68;19.78;101433.75;5002092;28;20062;-76
2022/05/16 13:54:33;;;;;;;4.18;0.63;;;;;;;25.93;19.66;101426.88;4963975;28;20094;-80
2022/05/16 13:57:05;;;;;;;1.98;0.73;;;;;;;25.65;20.29;101425.06;4982285;28;20030;-80
2022/05/16 13:59:32;;;;;;;4.63;0.90;;;;;;;25.53;20.49;101409.31;4969662;28;20049;-80
2022/05/16 14:02:04;;;;;;;4.80;0.77;;;;;;;25.38;20.63;101414.31;4963131;28;20562;-77
2022/05/16 14:04:35;;;;;;;1.75;0.80;;;;;;;25.77;20.33;101416.81;4997971;28;20053;-79
2022/05/16 14:07:10;;;;;;;1.75;0.60;;;;;;;26.43;19.86;101413.91;4981752;28;20030;-78
2022/05/16 14:09:58;;;;;;;4.65;0.93;;;;;;;26.42;19.63;101414.03;4965466;28;20647;-78
2022/05/16 14:12:46;;;;;;;3.42;1.25;;;;;;;26.81;19.20;101416.44;4996524;28;20041;-79
2022/05/16 14:15:27;;;;;;;3.45;0.82;;;;;;;27.44;19.34;101413.50;4982518;28;20038;-79
2022/05/16 14:18:04;;;;;;;3.05;1.35;;;;;;;27.80;18.05;101413.34;4980775;28;20125;-79
2022/05/16 14:20:39;;;;;;;2.85;0.50;;;;;;;27.65;18.26;101412.28;4958219;28;20057;-75
2022/05/16 14:23:33;;;;;;;3.60;0.90;;;;;;;27.17;18.58;101409.16;4954261;28;20042;-79
2022/05/16 14:26:17;;;;;;;4.75;1.35;;;;;;;26.77;18.82;101412.38;4990049;28;20034;-75
2022/05/16 14:29:15;;;;;;;3.05;0.70;;;;;;;26.15;19.54;101410.41;4954787;28;20042;-79
2022/05/16 14:31:47;;;;;;;2.83;0.95;;;;;;;26.41;20.15;101409.69;4960881;28;20141;-77
2022/05/16 14:34:31;;;;;;;5.10;0.90;;;;;;;26.29;20.19;101409.91;4971981;28;20133;-78
2022/05/16 14:37:28;;;;;;;2.35;0.63;;;;;;;26.13;19.50;101404.38;4957204;28;20031;-80
2022/05/16 14:40:09;;;;;;;4.53;1.20;;;;;;;26.24;20.07;101403.31;4964518;28;20038;-78
2022/05/16 14:42:40;;;;;;;5.28;0.80;;;;;;;26.34;20.47;101416.66;4958127;28;20050;-76
2022/05/16 14:45:15;;;;;;;4.00;0.75;;;;;;;26.22;20.20;101400.81;4959935;28;20846;-78
2022/05/16 14:47:51;;;;;;;3.08;1.27;;;;;;;26.38;20.37;101401.94;4961163;28;20062;-76
2022/05/16 14:50:26;;;;;;;6.55;0.85;;;;;;;26.12;20.40;101400.03;4961020;28;20101;-77
2022/05/16 14:52:58;;;;;;;3.78;0.95;;;;;;;26.37;20.60;101398.41;4956762;28;20049;-78
2022/05/16 14:55:30;;;;;;;4.03;1.02;;;;;;;26.60;20.08;101400.66;4961476;28;20029;-78
2022/05/16 14:57:56;;;;;;;4.88;0.85;;;;;;;26.78;20.19;101395.28;4961100;28;20046;-78
2022/05/16 15:05:52;;;;;;;2.95;0.90;;;;;;;26.21;20.91;101393.75;4973410;28;20046;-78
2022/05/16 15:08:30;;;;;;;1.83;1.00;;;;;;;26.00;20.84;101388.66;4959169;28;20052;-79
2022/05/16 15:10:57;;;;;;;4.13;1.02;;;;;;;25.58;21.49;101386.50;4960803;28;20042;-78
2022/05/16 15:13:23;;;;;;;4.38;0.73;;;;;;;25.72;21.75;101387.81;4964222;28;20734;-78
2022/05/16 15:15:49;;;;;;;5.53;0.90;;;;;;;25.66;21.88;101393.78;4981546;28;20038;-78
2022/05/16 15:18:16;;;;;;;6.28;1.13;;;;;;;25.48;22.32;101396.34;4998112;28;20042;-82
2022/05/16 15:20:44;;;;;;;3.80;1.05;;;;;;;25.41;21.82;101390.75;4963810;28;20026;-78
2022/05/16 15:23:11;;;;;;;6.70;1.50;;;;;;;25.35;22.24;101398.53;4963846;28;21315;-78
2022/05/16 15:25:37;;;;;;;4.07;1.10;;;;;;;25.32;22.02;101396.97;4968971;28;20026;-77
2022/05/16 15:28:04;;;;;;;3.30;0.93;;;;;;;25.24;22.13;101396.84;4960083;28;20095;-77
2022/05/16 15:30:32;;;;;;;4.50;0.70;;;;;;;25.12;22.34;101396.19;4965845;28;20634;-77
2022/05/16 15:32:58;;;;;;;5.13;1.35;;;;;;;25.07;22.25;101394.97;4962177;28;20058;-80
2022/05/16 15:35:23;;;;;;;2.95;1.15;;;;;;;25.02;22.74;101404.25;4979392;28;20100;-80
2022/05/16 15:37:49;;;;;;;2.15;0.90;;;;;;;25.17;22.56;101399.28;4965738;28;20058;-80
2022/05/16 15:40:15;;;;;;;3.28;0.65;;;;;;;25.09;22.55;101403.69;4998213;28;20042;-80
2022/05/16 15:42:41;;;;;;;5.43;0.85;;;;;;;25.03;22.93;101403.25;4980392;28;20058;-78
2022/05/16 15:45:07;;;;;;;2.75;0.95;;;;;;;25.26;22.70;101400.22;4964748;28;20085;-81
2022/05/16 15:47:43;;;;;;;8.52;1.17;;;;;;;25.19;22.92;101407.16;4980690;28;20053;-78
2022/05/16 15:50:08;;;;;;;6.07;1.02;;;;;;;25.37;22.60;101410.75;4967487;28;20114;-79
2022/05/16 15:52:35;;;;;;;5.35;1.17;;;;;;;25.33;22.49;101412.06;4963511;28;20129;-79
2022/05/16 15:55:03;;;;;;;5.75;1.35;;;;;;;25.32;22.21;101423.75;4996866;28;20030;-81
2022/05/16 15:57:29;;;;;;;6.68;1.33;;;;;;;25.15;22.82;101424.47;5000828;28;20751;-79
2022/05/16 15:59:56;;;;;;;4.95;1.10;;;;;;;25.01;23.15;101421.28;4963774;28;20125;-79
2022/05/16 16:02:23;;;;;;;6.43;1.40;;;;;;;24.87;23.07;101424.38;4968586;28;20093;-78
2022/05/16 16:10:20;;;;;;;3.45;1.10;;;;;;;25.26;24.05;101424.31;4990644;28;20228;-80